Piru, California
Current Conditions -  °F | °C
As of 3:55 PM on Thursday 18 Dec 2014 (Local Time) from KCMA Reporting Station
Broken Clouds Broken Clouds  
Wind Chill: 61°   Ceiling: 4200
Heat Index: 61°   Visibility: 10mi
Dew Point: 50°   Wind: 6mph
Humidity: 67%   Direction: 220°SW
Pressure: 30.15"   Gusts: NA
Location:  34.42°N, 118.8°W
Report Text: KCMA 182355Z 22005KT 10SM BKN042 16/10 A3015 RMK AO2 SLP218 T01610100 10172 20133 53002
Loading
Personal Weather Stations






























Interactive Weather Map New forecast layout! Learn more

10-Day Weather Forecast

Advertisements
Track Severe Weather on mobile